sensor_id;sensor_type;location;lat;lon;timestamp;P1;durP1;ratioP1;P2;durP2;ratioP2
75512;SDS011;64090;49.770;18.760;2024-02-15T00:02:41;7.70;;;4.80;;
75512;SDS011;64090;49.770;18.760;2024-02-15T00:06:03;7.00;;;4.10;;
75512;SDS011;64090;49.770;18.760;2024-02-15T00:09:06;6.50;;;3.90;;
75512;SDS011;64090;49.770;18.760;2024-02-15T00:12:09;6.90;;;4.60;;
75512;SDS011;64090;49.770;18.760;2024-02-15T00:15:12;8.50;;;5.10;;
75512;SDS011;64090;49.770;18.760;2024-02-15T00:18:15;7.70;;;4.20;;
75512;SDS011;64090;49.770;18.760;2024-02-15T00:21:19;9.10;;;4.90;;
75512;SDS011;64090;49.770;18.760;2024-02-15T00:24:22;7.40;;;4.20;;
75512;SDS011;64090;49.770;18.760;2024-02-15T00:27:26;8.90;;;4.40;;
75512;SDS011;64090;49.770;18.760;2024-02-15T00:30:29;9.50;;;5.10;;
75512;SDS011;64090;49.770;18.760;2024-02-15T00:33:32;7.40;;;4.50;;
75512;SDS011;64090;49.770;18.760;2024-02-15T00:36:35;9.00;;;5.50;;
75512;SDS011;64090;49.770;18.760;2024-02-15T00:39:38;8.20;;;4.60;;
75512;SDS011;64090;49.770;18.760;2024-02-15T00:42:41;8.80;;;5.70;;
75512;SDS011;64090;49.770;18.760;2024-02-15T00:45:44;8.30;;;4.50;;
75512;SDS011;64090;49.770;18.760;2024-02-15T00:48:46;9.50;;;4.60;;
75512;SDS011;64090;49.770;18.760;2024-02-15T00:51:50;8.00;;;5.00;;
75512;SDS011;64090;49.770;18.760;2024-02-15T00:54:52;7.30;;;4.50;;
75512;SDS011;64090;49.770;18.760;2024-02-15T00:57:55;8.60;;;5.10;;
75512;SDS011;64090;49.770;18.760;2024-02-15T01:00:58;8.80;;;5.00;;
75512;SDS011;64090;49.770;18.760;2024-02-15T01:04:02;9.10;;;5.50;;
75512;SDS011;64090;49.770;18.760;2024-02-15T01:07:05;7.80;;;4.60;;
75512;SDS011;64090;49.770;18.760;2024-02-15T01:10:08;6.90;;;4.00;;
75512;SDS011;64090;49.770;18.760;2024-02-15T01:13:11;7.10;;;4.70;;
75512;SDS011;64090;49.770;18.760;2024-02-15T01:16:14;7.70;;;4.60;;
75512;SDS011;64090;49.770;18.760;2024-02-15T01:19:18;6.90;;;4.00;;
75512;SDS011;64090;49.770;18.760;2024-02-15T01:22:21;7.30;;;3.60;;
75512;SDS011;64090;49.770;18.760;2024-02-15T01:25:27;6.20;;;3.00;;
75512;SDS011;64090;49.770;18.760;2024-02-15T01:28:31;7.30;;;3.30;;
75512;SDS011;64090;49.770;18.760;2024-02-15T01:31:33;6.00;;;4.60;;
75512;SDS011;64090;49.770;18.760;2024-02-15T01:34:36;6.50;;;3.80;;
75512;SDS011;64090;49.770;18.760;2024-02-15T01:37:39;5.90;;;4.00;;
75512;SDS011;64090;49.770;18.760;2024-02-15T01:40:43;7.30;;;4.50;;
75512;SDS011;64090;49.770;18.760;2024-02-15T01:43:46;7.30;;;5.10;;
75512;SDS011;64090;49.770;18.760;2024-02-15T01:46:50;5.90;;;4.00;;
75512;SDS011;64090;49.770;18.760;2024-02-15T01:49:57;5.60;;;3.60;;
75512;SDS011;64090;49.770;18.760;2024-02-15T01:53:00;7.40;;;5.60;;
75512;SDS011;64090;49.770;18.760;2024-02-15T01:56:06;7.20;;;4.40;;
75512;SDS011;64090;49.770;18.760;2024-02-15T01:59:10;6.80;;;3.90;;
75512;SDS011;64090;49.770;18.760;2024-02-15T02:02:15;6.90;;;3.90;;
75512;SDS011;64090;49.770;18.760;2024-02-15T02:05:21;7.50;;;4.10;;
75512;SDS011;64090;49.770;18.760;2024-02-15T02:08:23;5.70;;;3.90;;
75512;SDS011;64090;49.770;18.760;2024-02-15T02:11:26;6.70;;;4.30;;
75512;SDS011;64090;49.770;18.760;2024-02-15T02:14:31;7.00;;;4.40;;
75512;SDS011;64090;49.770;18.760;2024-02-15T02:17:34;6.60;;;4.30;;
75512;SDS011;64090;49.770;18.760;2024-02-15T02:20:38;7.60;;;5.50;;
75512;SDS011;64090;49.770;18.760;2024-02-15T02:23:41;8.00;;;5.00;;
75512;SDS011;64090;49.770;18.760;2024-02-15T02:26:45;7.40;;;4.40;;
75512;SDS011;64090;49.770;18.760;2024-02-15T02:29:48;6.20;;;3.60;;
75512;SDS011;64090;49.770;18.760;2024-02-15T02:32:51;6.20;;;3.80;;
75512;SDS011;64090;49.770;18.760;2024-02-15T02:35:54;10.30;;;4.90;;
75512;SDS011;64090;49.770;18.760;2024-02-15T02:39:00;7.50;;;5.10;;
75512;SDS011;64090;49.770;18.760;2024-02-15T02:42:04;7.90;;;4.50;;
75512;SDS011;64090;49.770;18.760;2024-02-15T02:45:07;8.80;;;5.80;;
75512;SDS011;64090;49.770;18.760;2024-02-15T02:48:10;7.90;;;4.70;;
75512;SDS011;64090;49.770;18.760;2024-02-15T02:51:13;10.30;;;5.00;;
75512;SDS011;64090;49.770;18.760;2024-02-15T02:54:16;7.60;;;4.90;;
75512;SDS011;64090;49.770;18.760;2024-02-15T02:57:20;7.80;;;4.30;;
75512;SDS011;64090;49.770;18.760;2024-02-15T03:00:22;8.00;;;5.40;;
75512;SDS011;64090;49.770;18.760;2024-02-15T03:03:34;7.30;;;4.60;;
75512;SDS011;64090;49.770;18.760;2024-02-15T03:06:38;8.30;;;5.50;;
75512;SDS011;64090;49.770;18.760;2024-02-15T03:09:41;6.60;;;4.20;;
75512;SDS011;64090;49.770;18.760;2024-02-15T03:12:44;7.00;;;4.30;;
75512;SDS011;64090;49.770;18.760;2024-02-15T03:15:51;8.60;;;5.20;;
75512;SDS011;64090;49.770;18.760;2024-02-15T03:18:54;6.90;;;4.70;;
75512;SDS011;64090;49.770;18.760;2024-02-15T03:21:57;8.50;;;4.60;;
75512;SDS011;64090;49.770;18.760;2024-02-15T03:25:00;7.50;;;5.10;;
75512;SDS011;64090;49.770;18.760;2024-02-15T03:28:03;8.00;;;5.00;;
75512;SDS011;64090;49.770;18.760;2024-02-15T03:31:06;9.70;;;5.40;;
75512;SDS011;64090;49.770;18.760;2024-02-15T03:34:10;7.80;;;4.70;;
75512;SDS011;64090;49.770;18.760;2024-02-15T03:37:13;8.30;;;5.00;;
75512;SDS011;64090;49.770;18.760;2024-02-15T03:40:16;7.20;;;4.10;;
75512;SDS011;64090;49.770;18.760;2024-02-15T03:43:20;7.40;;;5.00;;
75512;SDS011;64090;49.770;18.760;2024-02-15T03:46:23;7.20;;;4.10;;
75512;SDS011;64090;49.770;18.760;2024-02-15T03:49:26;7.30;;;4.60;;
75512;SDS011;64090;49.770;18.760;2024-02-15T03:52:30;8.30;;;4.60;;
75512;SDS011;64090;49.770;18.760;2024-02-15T03:55:33;7.30;;;5.30;;
75512;SDS011;64090;49.770;18.760;2024-02-15T03:58:37;9.70;;;4.40;;
75512;SDS011;64090;49.770;18.760;2024-02-15T04:01:41;7.40;;;5.40;;
75512;SDS011;64090;49.770;18.760;2024-02-15T04:04:44;6.90;;;4.50;;
75512;SDS011;64090;49.770;18.760;2024-02-15T04:07:49;7.20;;;4.30;;
75512;SDS011;64090;49.770;18.760;2024-02-15T04:10:52;6.80;;;4.50;;
75512;SDS011;64090;49.770;18.760;2024-02-15T04:13:55;5.60;;;3.90;;
75512;SDS011;64090;49.770;18.760;2024-02-15T04:17:00;8.20;;;5.20;;
75512;SDS011;64090;49.770;18.760;2024-02-15T04:20:04;7.40;;;3.90;;
75512;SDS011;64090;49.770;18.760;2024-02-15T04:23:08;5.90;;;2.80;;
75512;SDS011;64090;49.770;18.760;2024-02-15T04:26:11;7.40;;;4.30;;
75512;SDS011;64090;49.770;18.760;2024-02-15T04:29:17;8.00;;;5.40;;
75512;SDS011;64090;49.770;18.760;2024-02-15T04:32:22;6.80;;;4.40;;
75512;SDS011;64090;49.770;18.760;2024-02-15T04:35:25;5.80;;;3.70;;
75512;SDS011;64090;49.770;18.760;2024-02-15T04:38:47;8.20;;;5.70;;
75512;SDS011;64090;49.770;18.760;2024-02-15T04:41:53;5.80;;;3.70;;
75512;SDS011;64090;49.770;18.760;2024-02-15T04:44:56;7.30;;;4.20;;
75512;SDS011;64090;49.770;18.760;2024-02-15T04:47:59;6.70;;;4.90;;
75512;SDS011;64090;49.770;18.760;2024-02-15T04:51:04;8.10;;;4.40;;
75512;SDS011;64090;49.770;18.760;2024-02-15T04:54:07;9.10;;;4.70;;
75512;SDS011;64090;49.770;18.760;2024-02-15T04:57:11;7.20;;;4.10;;
75512;SDS011;64090;49.770;18.760;2024-02-15T05:00:15;6.30;;;4.10;;
75512;SDS011;64090;49.770;18.760;2024-02-15T05:03:19;7.20;;;3.80;;
75512;SDS011;64090;49.770;18.760;2024-02-15T05:06:39;8.40;;;4.60;;
75512;SDS011;64090;49.770;18.760;2024-02-15T05:09:42;7.90;;;4.60;;
75512;SDS011;64090;49.770;18.760;2024-02-15T05:12:45;7.20;;;4.10;;
75512;SDS011;64090;49.770;18.760;2024-02-15T05:15:51;7.10;;;4.60;;
75512;SDS011;64090;49.770;18.760;2024-02-15T05:18:54;9.10;;;5.50;;
75512;SDS011;64090;49.770;18.760;2024-02-15T05:21:57;6.70;;;4.40;;
75512;SDS011;64090;49.770;18.760;2024-02-15T05:24:59;6.00;;;3.90;;
75512;SDS011;64090;49.770;18.760;2024-02-15T05:28:02;7.60;;;4.30;;
75512;SDS011;64090;49.770;18.760;2024-02-15T05:31:09;5.60;;;3.30;;
75512;SDS011;64090;49.770;18.760;2024-02-15T05:34:13;7.30;;;3.80;;
75512;SDS011;64090;49.770;18.760;2024-02-15T05:37:17;8.00;;;4.10;;
75512;SDS011;64090;49.770;18.760;2024-02-15T05:40:20;7.60;;;3.60;;
75512;SDS011;64090;49.770;18.760;2024-02-15T05:43:23;6.90;;;4.20;;
75512;SDS011;64090;49.770;18.760;2024-02-15T05:46:27;6.80;;;4.00;;
75512;SDS011;64090;49.770;18.760;2024-02-15T05:49:30;6.20;;;4.20;;
75512;SDS011;64090;49.770;18.760;2024-02-15T05:52:33;6.60;;;3.70;;
75512;SDS011;64090;49.770;18.760;2024-02-15T05:55:37;6.90;;;4.60;;
75512;SDS011;64090;49.770;18.760;2024-02-15T05:58:43;7.40;;;4.30;;
75512;SDS011;64090;49.770;18.760;2024-02-15T06:01:46;6.70;;;4.00;;
75512;SDS011;64090;49.770;18.760;2024-02-15T06:04:51;8.00;;;3.90;;
75512;SDS011;64090;49.770;18.760;2024-02-15T06:07:55;7.80;;;4.70;;
75512;SDS011;64090;49.770;18.760;2024-02-15T06:11:00;8.60;;;4.40;;
75512;SDS011;64090;49.770;18.760;2024-02-15T06:14:04;8.60;;;5.50;;
75512;SDS011;64090;49.770;18.760;2024-02-15T06:17:07;10.60;;;5.40;;
75512;SDS011;64090;49.770;18.760;2024-02-15T06:20:15;8.40;;;4.70;;
75512;SDS011;64090;49.770;18.760;2024-02-15T06:23:21;7.40;;;3.90;;
75512;SDS011;64090;49.770;18.760;2024-02-15T06:26:24;10.70;;;4.50;;
75512;SDS011;64090;49.770;18.760;2024-02-15T06:29:28;10.80;;;5.20;;
75512;SDS011;64090;49.770;18.760;2024-02-15T06:32:49;11.30;;;5.40;;
75512;SDS011;64090;49.770;18.760;2024-02-15T06:36:10;10.60;;;4.70;;
75512;SDS011;64090;49.770;18.760;2024-02-15T06:39:32;15.10;;;7.10;;
75512;SDS011;64090;49.770;18.760;2024-02-15T06:42:45;21.50;;;10.70;;
75512;SDS011;64090;49.770;18.760;2024-02-15T06:45:48;13.80;;;8.50;;
75512;SDS011;64090;49.770;18.760;2024-02-15T06:48:53;9.40;;;5.60;;
75512;SDS011;64090;49.770;18.760;2024-02-15T06:51:57;9.50;;;5.40;;
75512;SDS011;64090;49.770;18.760;2024-02-15T06:55:01;10.20;;;5.80;;
75512;SDS011;64090;49.770;18.760;2024-02-15T06:58:04;7.50;;;5.50;;
75512;SDS011;64090;49.770;18.760;2024-02-15T07:01:08;9.60;;;4.40;;
75512;SDS011;64090;49.770;18.760;2024-02-15T07:04:11;6.30;;;4.00;;
75512;SDS011;64090;49.770;18.760;2024-02-15T07:07:14;7.10;;;4.30;;
75512;SDS011;64090;49.770;18.760;2024-02-15T07:10:18;7.20;;;4.10;;
75512;SDS011;64090;49.770;18.760;2024-02-15T07:13:20;7.60;;;5.00;;
75512;SDS011;64090;49.770;18.760;2024-02-15T07:16:24;8.00;;;4.40;;
75512;SDS011;64090;49.770;18.760;2024-02-15T07:19:28;8.30;;;5.00;;
75512;SDS011;64090;49.770;18.760;2024-02-15T07:22:31;7.20;;;4.20;;
75512;SDS011;64090;49.770;18.760;2024-02-15T07:25:34;6.40;;;4.30;;
75512;SDS011;64090;49.770;18.760;2024-02-15T07:28:39;7.90;;;4.40;;
75512;SDS011;64090;49.770;18.760;2024-02-15T07:31:42;7.90;;;5.50;;
75512;SDS011;64090;49.770;18.760;2024-02-15T07:34:45;7.30;;;4.50;;
75512;SDS011;64090;49.770;18.760;2024-02-15T07:37:53;7.70;;;4.30;;
75512;SDS011;64090;49.770;18.760;2024-02-15T07:40:58;7.10;;;4.10;;
75512;SDS011;64090;49.770;18.760;2024-02-15T07:44:02;6.60;;;4.00;;
75512;SDS011;64090;49.770;18.760;2024-02-15T07:47:05;7.60;;;4.10;;
75512;SDS011;64090;49.770;18.760;2024-02-15T07:50:09;7.30;;;4.20;;
75512;SDS011;64090;49.770;18.760;2024-02-15T07:53:12;7.80;;;4.60;;
75512;SDS011;64090;49.770;18.760;2024-02-15T07:56:16;8.70;;;5.00;;
75512;SDS011;64090;49.770;18.760;2024-02-15T07:59:20;6.30;;;4.00;;
75512;SDS011;64090;49.770;18.760;2024-02-15T08:02:23;8.50;;;5.20;;
75512;SDS011;64090;49.770;18.760;2024-02-15T08:05:27;7.20;;;5.20;;
75512;SDS011;64090;49.770;18.760;2024-02-15T08:08:30;6.50;;;4.70;;
75512;SDS011;64090;49.770;18.760;2024-02-15T08:11:33;8.80;;;4.40;;
75512;SDS011;64090;49.770;18.760;2024-02-15T08:14:36;8.00;;;5.30;;
75512;SDS011;64090;49.770;18.760;2024-02-15T08:17:44;6.90;;;4.00;;
75512;SDS011;64090;49.770;18.760;2024-02-15T08:20:51;8.10;;;4.50;;
75512;SDS011;64090;49.770;18.760;2024-02-15T08:23:54;6.60;;;4.40;;
75512;SDS011;64090;49.770;18.760;2024-02-15T08:26:58;7.30;;;3.80;;
75512;SDS011;64090;49.770;18.760;2024-02-15T08:30:02;5.80;;;3.50;;
75512;SDS011;64090;49.770;18.760;2024-02-15T08:33:06;4.90;;;3.30;;
75512;SDS011;64090;49.770;18.760;2024-02-15T08:36:10;7.70;;;4.00;;
75512;SDS011;64090;49.770;18.760;2024-02-15T08:39:13;5.00;;;3.80;;
75512;SDS011;64090;49.770;18.760;2024-02-15T08:42:19;5.50;;;2.80;;
75512;SDS011;64090;49.770;18.760;2024-02-15T08:45:24;5.10;;;4.00;;
75512;SDS011;64090;49.770;18.760;2024-02-15T08:48:27;7.10;;;4.00;;
75512;SDS011;64090;49.770;18.760;2024-02-15T08:51:30;7.00;;;3.90;;
75512;SDS011;64090;49.770;18.760;2024-02-15T08:54:35;7.20;;;4.50;;
75512;SDS011;64090;49.770;18.760;2024-02-15T09:00:46;4.30;;;2.90;;
75512;SDS011;64090;49.770;18.760;2024-02-15T09:03:49;6.10;;;3.10;;
75512;SDS011;64090;49.770;18.760;2024-02-15T09:06:52;5.00;;;2.70;;
75512;SDS011;64090;49.770;18.760;2024-02-15T09:09:55;4.80;;;2.70;;
75512;SDS011;64090;49.770;18.760;2024-02-15T09:12:58;4.60;;;2.40;;
75512;SDS011;64090;49.770;18.760;2024-02-15T09:16:01;4.30;;;2.90;;
75512;SDS011;64090;49.770;18.760;2024-02-15T09:19:05;5.00;;;2.90;;
75512;SDS011;64090;49.770;18.760;2024-02-15T09:22:09;3.90;;;2.20;;
75512;SDS011;64090;49.770;18.760;2024-02-15T09:25:12;3.80;;;2.10;;
75512;SDS011;64090;49.770;18.760;2024-02-15T09:28:15;3.80;;;2.20;;
75512;SDS011;64090;49.770;18.760;2024-02-15T09:31:19;5.20;;;2.80;;
75512;SDS011;64090;49.770;18.760;2024-02-15T09:34:22;5.40;;;3.30;;
75512;SDS011;64090;49.770;18.760;2024-02-15T09:37:25;4.50;;;2.50;;
75512;SDS011;64090;49.770;18.760;2024-02-15T09:40:30;4.60;;;2.50;;
75512;SDS011;64090;49.770;18.760;2024-02-15T09:43:34;4.60;;;2.60;;
75512;SDS011;64090;49.770;18.760;2024-02-15T09:46:40;3.20;;;2.60;;
75512;SDS011;64090;49.770;18.760;2024-02-15T09:49:47;4.10;;;2.70;;
75512;SDS011;64090;49.770;18.760;2024-02-15T09:52:52;5.00;;;2.70;;
75512;SDS011;64090;49.770;18.760;2024-02-15T09:55:59;4.00;;;2.40;;
75512;SDS011;64090;49.770;18.760;2024-02-15T09:59:07;3.30;;;1.90;;
75512;SDS011;64090;49.770;18.760;2024-02-15T10:02:09;5.40;;;2.40;;
75512;SDS011;64090;49.770;18.760;2024-02-15T10:05:13;4.50;;;1.40;;
75512;SDS011;64090;49.770;18.760;2024-02-15T10:08:16;2.00;;;1.20;;
75512;SDS011;64090;49.770;18.760;2024-02-15T10:11:20;2.00;;;1.20;;
75512;SDS011;64090;49.770;18.760;2024-02-15T10:14:26;1.70;;;1.10;;
75512;SDS011;64090;49.770;18.760;2024-02-15T10:17:31;2.10;;;1.30;;
75512;SDS011;64090;49.770;18.760;2024-02-15T10:20:38;3.20;;;1.50;;
75512;SDS011;64090;49.770;18.760;2024-02-15T10:23:42;2.80;;;1.40;;
75512;SDS011;64090;49.770;18.760;2024-02-15T10:26:45;2.00;;;1.50;;
75512;SDS011;64090;49.770;18.760;2024-02-15T10:29:51;3.30;;;1.60;;
75512;SDS011;64090;49.770;18.760;2024-02-15T10:32:55;3.60;;;1.70;;
75512;SDS011;64090;49.770;18.760;2024-02-15T10:36:09;3.30;;;1.60;;
75512;SDS011;64090;49.770;18.760;2024-02-15T10:39:17;2.70;;;1.50;;
75512;SDS011;64090;49.770;18.760;2024-02-15T10:42:23;3.50;;;2.20;;
75512;SDS011;64090;49.770;18.760;2024-02-15T10:45:28;3.00;;;1.70;;
75512;SDS011;64090;49.770;18.760;2024-02-15T10:48:33;2.90;;;1.40;;
75512;SDS011;64090;49.770;18.760;2024-02-15T10:51:36;3.70;;;2.30;;
75512;SDS011;64090;49.770;18.760;2024-02-15T10:58:07;3.40;;;2.10;;
75512;SDS011;64090;49.770;18.760;2024-02-15T11:01:10;3.50;;;2.30;;
75512;SDS011;64090;49.770;18.760;2024-02-15T11:04:17;4.50;;;2.20;;
75512;SDS011;64090;49.770;18.760;2024-02-15T11:07:24;3.00;;;2.50;;
75512;SDS011;64090;49.770;18.760;2024-02-15T11:10:34;3.20;;;1.90;;
75512;SDS011;64090;49.770;18.760;2024-02-15T11:13:38;4.90;;;2.30;;
75512;SDS011;64090;49.770;18.760;2024-02-15T11:16:42;4.90;;;3.30;;
75512;SDS011;64090;49.770;18.760;2024-02-15T11:19:51;4.70;;;2.40;;
75512;SDS011;64090;49.770;18.760;2024-02-15T11:22:57;4.20;;;2.20;;
75512;SDS011;64090;49.770;18.760;2024-02-15T11:26:00;3.90;;;2.40;;
75512;SDS011;64090;49.770;18.760;2024-02-15T11:29:03;4.10;;;2.40;;
75512;SDS011;64090;49.770;18.760;2024-02-15T11:32:06;4.20;;;2.10;;
75512;SDS011;64090;49.770;18.760;2024-02-15T11:38:27;5.70;;;2.60;;
75512;SDS011;64090;49.770;18.760;2024-02-15T11:41:30;3.80;;;2.50;;
75512;SDS011;64090;49.770;18.760;2024-02-15T11:44:34;4.50;;;2.90;;
75512;SDS011;64090;49.770;18.760;2024-02-15T11:47:39;5.20;;;2.90;;
75512;SDS011;64090;49.770;18.760;2024-02-15T11:50:45;4.70;;;2.70;;
75512;SDS011;64090;49.770;18.760;2024-02-15T11:53:58;7.80;;;4.00;;
75512;SDS011;64090;49.770;18.760;2024-02-15T11:57:02;5.00;;;3.70;;
75512;SDS011;64090;49.770;18.760;2024-02-15T12:00:25;5.40;;;3.70;;
75512;SDS011;64090;49.770;18.760;2024-02-15T12:03:52;5.00;;;4.20;;
75512;SDS011;64090;49.770;18.760;2024-02-15T12:07:16;5.30;;;2.70;;
75512;SDS011;64090;49.770;18.760;2024-02-15T12:10:37;5.80;;;3.40;;
75512;SDS011;64090;49.770;18.760;2024-02-15T12:13:59;7.40;;;3.80;;
75512;SDS011;64090;49.770;18.760;2024-02-15T12:17:23;5.50;;;3.40;;
75512;SDS011;64090;49.770;18.760;2024-02-15T12:20:44;5.60;;;4.30;;
75512;SDS011;64090;49.770;18.760;2024-02-15T12:23:48;5.70;;;4.50;;
75512;SDS011;64090;49.770;18.760;2024-02-15T12:26:59;5.80;;;4.60;;
75512;SDS011;64090;49.770;18.760;2024-02-15T12:30:04;6.20;;;3.70;;
75512;SDS011;64090;49.770;18.760;2024-02-15T12:33:10;6.90;;;4.40;;
75512;SDS011;64090;49.770;18.760;2024-02-15T12:36:15;6.10;;;4.00;;
75512;SDS011;64090;49.770;18.760;2024-02-15T12:39:25;6.70;;;3.80;;
75512;SDS011;64090;49.770;18.760;2024-02-15T12:42:28;6.30;;;4.40;;
75512;SDS011;64090;49.770;18.760;2024-02-15T12:45:31;4.70;;;3.00;;
75512;SDS011;64090;49.770;18.760;2024-02-15T12:48:39;6.60;;;4.70;;
75512;SDS011;64090;49.770;18.760;2024-02-15T12:51:50;4.40;;;3.20;;
75512;SDS011;64090;49.770;18.760;2024-02-15T12:58:22;5.70;;;3.70;;
75512;SDS011;64090;49.770;18.760;2024-02-15T13:01:27;6.90;;;4.00;;
75512;SDS011;64090;49.770;18.760;2024-02-15T13:04:31;7.10;;;4.20;;
75512;SDS011;64090;49.770;18.760;2024-02-15T13:07:35;6.90;;;3.90;;
75512;SDS011;64090;49.770;18.760;2024-02-15T13:10:40;12.60;;;5.40;;
75512;SDS011;64090;49.770;18.760;2024-02-15T13:13:43;7.70;;;4.50;;
75512;SDS011;64090;49.770;18.760;2024-02-15T13:16:46;6.50;;;4.50;;
75512;SDS011;64090;49.770;18.760;2024-02-15T13:19:51;7.00;;;4.30;;
75512;SDS011;64090;49.770;18.760;2024-02-15T13:22:54;5.90;;;4.00;;
75512;SDS011;64090;49.770;18.760;2024-02-15T13:25:59;6.60;;;4.40;;
75512;SDS011;64090;49.770;18.760;2024-02-15T13:29:06;7.70;;;4.30;;
75512;SDS011;64090;49.770;18.760;2024-02-15T13:32:09;8.60;;;4.80;;
75512;SDS011;64090;49.770;18.760;2024-02-15T13:35:14;8.80;;;5.40;;
75512;SDS011;64090;49.770;18.760;2024-02-15T13:38:20;6.80;;;3.90;;
75512;SDS011;64090;49.770;18.760;2024-02-15T13:41:27;5.20;;;3.40;;
75512;SDS011;64090;49.770;18.760;2024-02-15T13:44:29;6.70;;;3.00;;
75512;SDS011;64090;49.770;18.760;2024-02-15T13:47:33;6.90;;;3.50;;
75512;SDS011;64090;49.770;18.760;2024-02-15T13:50:36;11.00;;;5.20;;
75512;SDS011;64090;49.770;18.760;2024-02-15T13:53:40;10.50;;;5.90;;
75512;SDS011;64090;49.770;18.760;2024-02-15T13:56:43;9.50;;;5.80;;
75512;SDS011;64090;49.770;18.760;2024-02-15T13:59:46;10.30;;;4.50;;
75512;SDS011;64090;49.770;18.760;2024-02-15T14:02:50;7.50;;;4.70;;
75512;SDS011;64090;49.770;18.760;2024-02-15T14:05:55;6.60;;;4.00;;
75512;SDS011;64090;49.770;18.760;2024-02-15T14:08:58;6.00;;;3.90;;
75512;SDS011;64090;49.770;18.760;2024-02-15T14:12:01;6.50;;;3.20;;
75512;SDS011;64090;49.770;18.760;2024-02-15T14:15:08;6.20;;;4.50;;
75512;SDS011;64090;49.770;18.760;2024-02-15T14:18:12;7.70;;;5.10;;
75512;SDS011;64090;49.770;18.760;2024-02-15T14:21:17;7.20;;;4.20;;
75512;SDS011;64090;49.770;18.760;2024-02-15T14:24:21;7.10;;;4.30;;
75512;SDS011;64090;49.770;18.760;2024-02-15T14:27:25;7.70;;;4.60;;
75512;SDS011;64090;49.770;18.760;2024-02-15T14:30:28;8.80;;;4.70;;
75512;SDS011;64090;49.770;18.760;2024-02-15T14:33:50;7.10;;;4.00;;
75512;SDS011;64090;49.770;18.760;2024-02-15T14:36:53;6.50;;;4.30;;
75512;SDS011;64090;49.770;18.760;2024-02-15T14:39:57;7.90;;;4.10;;
75512;SDS011;64090;49.770;18.760;2024-02-15T14:43:07;6.30;;;4.80;;
75512;SDS011;64090;49.770;18.760;2024-02-15T14:46:10;8.20;;;5.00;;
75512;SDS011;64090;49.770;18.760;2024-02-15T14:49:13;6.50;;;3.70;;
75512;SDS011;64090;49.770;18.760;2024-02-15T14:52:16;7.30;;;4.20;;
75512;SDS011;64090;49.770;18.760;2024-02-15T14:55:19;6.70;;;4.00;;
75512;SDS011;64090;49.770;18.760;2024-02-15T14:58:23;6.00;;;3.70;;
75512;SDS011;64090;49.770;18.760;2024-02-15T15:01:26;6.50;;;4.40;;
75512;SDS011;64090;49.770;18.760;2024-02-15T15:04:29;6.10;;;3.70;;
75512;SDS011;64090;49.770;18.760;2024-02-15T15:07:49;9.20;;;5.00;;
75512;SDS011;64090;49.770;18.760;2024-02-15T15:11:10;8.40;;;5.00;;
75512;SDS011;64090;49.770;18.760;2024-02-15T15:14:32;7.50;;;4.90;;
75512;SDS011;64090;49.770;18.760;2024-02-15T15:17:35;8.30;;;5.10;;
75512;SDS011;64090;49.770;18.760;2024-02-15T15:20:39;8.20;;;5.80;;
75512;SDS011;64090;49.770;18.760;2024-02-15T15:23:42;9.90;;;4.60;;
75512;SDS011;64090;49.770;18.760;2024-02-15T15:26:46;9.30;;;5.00;;
75512;SDS011;64090;49.770;18.760;2024-02-15T15:29:48;8.90;;;4.90;;
75512;SDS011;64090;49.770;18.760;2024-02-15T15:32:52;9.20;;;4.60;;
75512;SDS011;64090;49.770;18.760;2024-02-15T15:35:55;6.80;;;4.50;;
75512;SDS011;64090;49.770;18.760;2024-02-15T15:38:58;9.60;;;5.00;;
75512;SDS011;64090;49.770;18.760;2024-02-15T15:42:02;8.60;;;5.50;;
75512;SDS011;64090;49.770;18.760;2024-02-15T15:45:05;10.00;;;6.00;;
75512;SDS011;64090;49.770;18.760;2024-02-15T15:48:11;9.90;;;5.80;;
75512;SDS011;64090;49.770;18.760;2024-02-15T15:51:14;9.10;;;4.80;;
75512;SDS011;64090;49.770;18.760;2024-02-15T15:54:18;7.70;;;4.90;;
75512;SDS011;64090;49.770;18.760;2024-02-15T15:57:22;7.90;;;4.30;;
75512;SDS011;64090;49.770;18.760;2024-02-15T16:00:27;8.20;;;4.80;;
75512;SDS011;64090;49.770;18.760;2024-02-15T16:03:30;9.40;;;5.60;;
75512;SDS011;64090;49.770;18.760;2024-02-15T16:06:34;8.70;;;4.50;;
75512;SDS011;64090;49.770;18.760;2024-02-15T16:09:38;10.20;;;5.40;;
75512;SDS011;64090;49.770;18.760;2024-02-15T16:12:47;9.40;;;5.70;;
75512;SDS011;64090;49.770;18.760;2024-02-15T16:15:51;9.20;;;6.30;;
75512;SDS011;64090;49.770;18.760;2024-02-15T16:18:59;8.80;;;5.80;;
75512;SDS011;64090;49.770;18.760;2024-02-15T16:22:02;8.20;;;5.20;;
75512;SDS011;64090;49.770;18.760;2024-02-15T16:25:06;9.40;;;5.40;;
75512;SDS011;64090;49.770;18.760;2024-02-15T16:28:11;10.10;;;5.40;;
75512;SDS011;64090;49.770;18.760;2024-02-15T16:31:14;9.20;;;6.00;;
75512;SDS011;64090;49.770;18.760;2024-02-15T16:34:17;10.60;;;5.90;;
75512;SDS011;64090;49.770;18.760;2024-02-15T16:37:20;11.20;;;5.50;;
75512;SDS011;64090;49.770;18.760;2024-02-15T16:40:24;10.50;;;6.50;;
75512;SDS011;64090;49.770;18.760;2024-02-15T16:43:28;8.70;;;5.90;;
75512;SDS011;64090;49.770;18.760;2024-02-15T16:46:31;13.20;;;7.20;;
75512;SDS011;64090;49.770;18.760;2024-02-15T16:49:34;10.50;;;5.50;;
75512;SDS011;64090;49.770;18.760;2024-02-15T16:52:37;8.00;;;5.80;;
75512;SDS011;64090;49.770;18.760;2024-02-15T16:55:45;10.00;;;6.20;;
75512;SDS011;64090;49.770;18.760;2024-02-15T16:58:52;12.10;;;6.60;;
75512;SDS011;64090;49.770;18.760;2024-02-15T17:01:55;9.80;;;5.80;;
75512;SDS011;64090;49.770;18.760;2024-02-15T17:04:58;13.00;;;6.80;;
75512;SDS011;64090;49.770;18.760;2024-02-15T17:08:02;11.00;;;6.50;;
75512;SDS011;64090;49.770;18.760;2024-02-15T17:11:09;11.60;;;6.20;;
75512;SDS011;64090;49.770;18.760;2024-02-15T17:14:15;13.90;;;7.10;;
75512;SDS011;64090;49.770;18.760;2024-02-15T17:20:21;11.80;;;5.80;;
75512;SDS011;64090;49.770;18.760;2024-02-15T17:23:26;11.00;;;5.40;;
75512;SDS011;64090;49.770;18.760;2024-02-15T17:26:29;8.30;;;5.50;;
75512;SDS011;64090;49.770;18.760;2024-02-15T17:29:32;8.90;;;5.80;;
75512;SDS011;64090;49.770;18.760;2024-02-15T17:32:35;7.90;;;5.20;;
75512;SDS011;64090;49.770;18.760;2024-02-15T17:35:38;8.30;;;4.40;;
75512;SDS011;64090;49.770;18.760;2024-02-15T17:38:41;8.20;;;5.20;;
75512;SDS011;64090;49.770;18.760;2024-02-15T17:41:44;8.10;;;4.20;;
75512;SDS011;64090;49.770;18.760;2024-02-15T17:44:47;9.60;;;5.30;;
75512;SDS011;64090;49.770;18.760;2024-02-15T17:47:50;10.90;;;6.00;;
75512;SDS011;64090;49.770;18.760;2024-02-15T17:50:53;10.00;;;5.60;;
75512;SDS011;64090;49.770;18.760;2024-02-15T17:53:56;9.70;;;5.60;;
75512;SDS011;64090;49.770;18.760;2024-02-15T17:57:00;8.70;;;5.40;;
75512;SDS011;64090;49.770;18.760;2024-02-15T18:00:07;8.90;;;5.90;;
75512;SDS011;64090;49.770;18.760;2024-02-15T18:03:25;9.50;;;5.70;;
75512;SDS011;64090;49.770;18.760;2024-02-15T18:06:28;12.40;;;6.70;;
75512;SDS011;64090;49.770;18.760;2024-02-15T18:09:32;9.30;;;6.10;;
75512;SDS011;64090;49.770;18.760;2024-02-15T18:12:39;9.70;;;6.20;;
75512;SDS011;64090;49.770;18.760;2024-02-15T18:15:42;10.50;;;5.80;;
75512;SDS011;64090;49.770;18.760;2024-02-15T18:18:52;11.30;;;6.40;;
75512;SDS011;64090;49.770;18.760;2024-02-15T18:21:55;8.90;;;6.20;;
75512;SDS011;64090;49.770;18.760;2024-02-15T18:24:58;9.80;;;5.80;;
75512;SDS011;64090;49.770;18.760;2024-02-15T18:28:01;7.80;;;4.30;;
75512;SDS011;64090;49.770;18.760;2024-02-15T18:31:05;7.50;;;5.10;;
75512;SDS011;64090;49.770;18.760;2024-02-15T18:34:11;8.80;;;6.20;;